Time;durP1;ratioP1;P1;durP2;ratioP2;P2;SDS_P1;SDS_P2;PMS_P1;PMS_P2;Temp;Humidity;BMP_temperature;BMP_pressure;BME280_temperature;BME280_humidity;BME280_pressure;Samples;Min_cycle;Max_cycle;Signal;HPM_P1;HPM_P2
2022/04/17 00:00:38;;;;;;;;;;;19.10;99.90;;;;;;4860883;29;19960;-75
2022/04/17 00:03:06;;;;;;;;;;;19.10;99.90;;;;;;4860552;29;19924;-75
2022/04/17 00:05:34;;;;;;;;;;;19.20;99.90;;;;;;4860455;29;19951;-75
2022/04/17 00:08:00;;;;;;;;;;;19.30;99.90;;;;;;4860801;29;19922;-76
2022/04/17 00:10:27;;;;;;;;;;;19.40;99.90;;;;;;4860919;29;20342;-76
2022/04/17 00:12:54;;;;;;;;;;;19.50;99.90;;;;;;4863333;29;19923;-75
2022/04/17 00:15:20;;;;;;;;;;;19.60;99.90;;;;;;4864605;29;19912;-76
2022/04/17 00:17:47;;;;;;;;;;;19.70;99.90;;;;;;4864144;29;19912;-76
2022/04/17 00:20:15;;;;;;;;;;;19.60;99.90;;;;;;4864429;29;19959;-76
2022/04/17 00:22:45;;;;;;;;;;;19.60;99.90;;;;;;4864164;29;19923;-76
2022/04/17 00:25:12;;;;;;;;;;;19.70;99.90;;;;;;4864384;29;20317;-76
2022/04/17 00:27:39;;;;;;;;;;;19.80;99.90;;;;;;4863779;29;19913;-76
2022/04/17 00:30:07;;;;;;;;;;;19.80;99.90;;;;;;4864383;29;20368;-74
2022/04/17 00:32:34;;;;;;;;;;;19.90;99.90;;;;;;4864281;29;19961;-73
2022/04/17 00:35:01;;;;;;;;;;;20.00;99.90;;;;;;4864338;29;19912;-74
2022/04/17 00:37:28;;;;;;;;;;;20.00;99.90;;;;;;4864199;29;19951;-76
2022/04/17 00:39:54;;;;;;;;;;;20.00;99.90;;;;;;4864199;29;19912;-76
2022/04/17 00:42:21;;;;;;;;;;;20.00;99.90;;;;;;4863642;29;19923;-76
2022/04/17 00:44:48;;;;;;;;;;;20.10;99.90;;;;;;4864454;29;20378;-75
2022/04/17 00:47:17;;;;;;;;;;;20.20;99.90;;;;;;4864235;29;19940;-76
2022/04/17 00:49:45;;;;;;;;;;;20.30;99.90;;;;;;4864263;29;19935;-77
2022/04/17 00:52:12;;;;;;;;;;;20.50;99.90;;;;;;4864595;29;20260;-78
2022/04/17 00:54:45;;;;;;;;;;;20.60;99.90;;;;;;4864503;29;19913;-77
2022/04/17 00:57:12;;;;;;;;;;;20.50;99.90;;;;;;4864359;29;20008;-77
2022/04/17 00:59:43;;;;;;;;;;;20.50;99.90;;;;;;4864416;29;20382;-76
2022/04/17 01:02:10;;;;;;;;;;;20.60;99.90;;;;;;4864662;29;19999;-77
2022/04/17 01:04:37;;;;;;;;;;;20.50;99.90;;;;;;4868341;29;19928;-76
2022/04/17 01:07:04;;;;;;;;;;;20.40;99.90;;;;;;4872545;29;19919;-77
2022/04/17 01:09:32;;;;;;;;;;;20.40;99.90;;;;;;4874779;29;19919;-75
2022/04/17 01:11:59;;;;;;;;;;;20.40;99.90;;;;;;4864218;29;19944;-76
2022/04/17 01:14:29;;;;;;;;;;;20.40;99.90;;;;;;4864187;29;19916;-78
2022/04/17 01:16:56;;;;;;;;;;;20.40;99.90;;;;;;4864063;29;19992;-78
2022/04/17 01:19:23;;;;;;;;;;;20.50;99.90;;;;;;4863985;29;20456;-77
2022/04/17 01:21:50;;;;;;;;;;;20.50;99.90;;;;;;4863742;29;19915;-77
2022/04/17 01:27:03;;;;;;;;;;;20.40;99.90;;;;;;4863406;29;19934;-77
2022/04/17 01:29:34;;;;;;;;;;;20.40;99.90;;;;;;4863847;29;19912;-76
2022/04/17 01:32:01;;;;;;;;;;;20.60;99.90;;;;;;4863362;29;19919;-77
2022/04/17 01:34:28;;;;;;;;;;;20.70;99.90;;;;;;4863421;29;20023;-77
2022/04/17 01:36:55;;;;;;;;;;;20.70;99.90;;;;;;4863462;29;20371;-75
2022/04/17 01:39:22;;;;;;;;;;;20.80;99.90;;;;;;4863332;29;19912;-77
2022/04/17 01:41:50;;;;;;;;;;;20.90;99.90;;;;;;4862608;29;19919;-75
2022/04/17 01:44:17;;;;;;;;;;;20.90;99.90;;;;;;4863352;29;19967;-76
2022/04/17 01:46:45;;;;;;;;;;;20.90;99.90;;;;;;4862899;29;19916;-76
2022/04/17 01:49:12;;;;;;;;;;;21.00;99.90;;;;;;4862931;29;19919;-75
2022/04/17 01:51:40;;;;;;;;;;;21.00;99.90;;;;;;4862689;29;19912;-76
2022/04/17 01:54:07;;;;;;;;;;;21.00;99.90;;;;;;4862840;29;19964;-76
2022/04/17 01:56:34;;;;;;;;;;;20.90;99.90;;;;;;4862662;29;19912;-76
2022/04/17 01:59:01;;;;;;;;;;;21.00;99.90;;;;;;4863274;29;19912;-76
2022/04/17 02:01:28;;;;;;;;;;;21.00;99.90;;;;;;4862718;29;19919;-76
2022/04/17 02:03:55;;;;;;;;;;;20.90;99.90;;;;;;4862318;29;20447;-76
2022/04/17 02:06:21;;;;;;;;;;;20.90;99.90;;;;;;4862759;29;20380;-76
2022/04/17 02:08:51;;;;;;;;;;;20.90;99.90;;;;;;4862729;29;20155;-77
2022/04/17 02:11:21;;;;;;;;;;;21.00;99.90;;;;;;4862856;29;19912;-76
2022/04/17 02:13:54;;;;;;;;;;;21.00;99.90;;;;;;4862281;29;19912;-76
2022/04/17 02:16:21;;;;;;;;;;;21.00;99.90;;;;;;4862426;29;19912;-77
2022/04/17 02:18:54;;;;;;;;;;;20.90;99.90;;;;;;4862152;29;20219;-77
2022/04/17 02:21:21;;;;;;;;;;;20.80;99.90;;;;;;4862681;29;19987;-77
2022/04/17 02:23:48;;;;;;;;;;;20.80;99.90;;;;;;4862388;29;19920;-77
2022/04/17 02:26:18;;;;;;;;;;;20.80;99.90;;;;;;4862435;29;19969;-76
2022/04/17 02:28:46;;;;;;;;;;;20.80;99.90;;;;;;4862445;29;19912;-75
2022/04/17 02:31:13;;;;;;;;;;;20.80;99.90;;;;;;4862313;29;19934;-77
2022/04/17 02:33:40;;;;;;;;;;;21.00;99.90;;;;;;4862138;29;19912;-77
2022/04/17 02:36:07;;;;;;;;;;;21.00;99.90;;;;;;4861345;29;19916;-77
2022/04/17 02:38:33;;;;;;;;;;;21.10;99.90;;;;;;4862080;29;19916;-77
2022/04/17 02:41:00;;;;;;;;;;;21.10;99.90;;;;;;4862117;29;19920;-77
2022/04/17 02:43:27;;;;;;;;;;;21.20;99.90;;;;;;4862093;29;19920;-77
2022/04/17 02:45:54;;;;;;;;;;;21.20;99.90;;;;;;4861484;29;19928;-77
2022/04/17 02:48:21;;;;;;;;;;;21.20;99.90;;;;;;4861998;29;19912;-77
2022/04/17 02:50:48;;;;;;;;;;;21.10;99.90;;;;;;4861954;29;20003;-77
2022/04/17 02:53:16;;;;;;;;;;;21.00;99.90;;;;;;4861869;29;20288;-77
2022/04/17 02:55:43;;;;;;;;;;;21.10;99.90;;;;;;4861586;29;19912;-77
2022/04/17 02:58:14;;;;;;;;;;;21.20;99.90;;;;;;4861915;29;19913;-77
2022/04/17 03:06:23;;;;;;;;;;;21.30;99.90;;;;;;4827547;29;19924;-77
2022/04/17 03:08:50;;;;;;;;;;;21.30;99.90;;;;;;4861712;29;19958;-77
2022/04/17 03:11:17;;;;;;;;;;;21.30;99.90;;;;;;4861581;29;20257;-77
2022/04/17 03:13:43;;;;;;;;;;;21.40;99.90;;;;;;4861288;29;19923;-77
2022/04/17 03:16:11;;;;;;;;;;;21.30;99.90;;;;;;4861204;29;19912;-77
2022/04/17 03:18:37;;;;;;;;;;;21.20;99.90;;;;;;4861593;29;19913;-77
2022/04/17 03:21:04;;;;;;;;;;;21.20;99.90;;;;;;4861404;29;19912;-77
2022/04/17 03:23:31;;;;;;;;;;;21.20;99.90;;;;;;4861223;29;19924;-77
2022/04/17 03:25:58;;;;;;;;;;;21.20;99.90;;;;;;4861425;29;19935;-77
2022/04/17 03:28:24;;;;;;;;;;;21.30;99.90;;;;;;4861433;29;19920;-76
2022/04/17 03:30:51;;;;;;;;;;;21.40;99.90;;;;;;4861182;29;19913;-77
2022/04/17 03:33:18;;;;;;;;;;;21.30;99.90;;;;;;4861432;29;19912;-76
2022/04/17 03:35:44;;;;;;;;;;;21.30;99.90;;;;;;4861002;29;19912;-77
2022/04/17 03:38:11;;;;;;;;;;;21.30;99.90;;;;;;4861131;29;19912;-76
2022/04/17 03:40:38;;;;;;;;;;;21.40;99.90;;;;;;4859734;29;20308;-75
2022/04/17 03:43:05;;;;;;;;;;;21.50;99.90;;;;;;4860951;29;20003;-77
2022/04/17 03:45:32;;;;;;;;;;;21.60;99.90;;;;;;4861022;29;19912;-76
2022/04/17 03:47:59;;;;;;;;;;;21.70;99.90;;;;;;4860695;29;20332;-76
2022/04/17 03:50:26;;;;;;;;;;;21.70;99.90;;;;;;4861028;29;19928;-76
2022/04/17 03:52:53;;;;;;;;;;;21.70;99.90;;;;;;4859797;29;20435;-76
2022/04/17 03:55:20;;;;;;;;;;;21.80;99.90;;;;;;4861033;29;20288;-76
2022/04/17 03:57:47;;;;;;;;;;;21.90;99.90;;;;;;4860660;29;19912;-76
2022/04/17 04:00:13;;;;;;;;;;;21.90;99.90;;;;;;4860771;29;19919;-77
2022/04/17 04:02:42;;;;;;;;;;;21.90;99.90;;;;;;4860790;29;20316;-76
2022/04/17 04:05:10;;;;;;;;;;;21.90;99.90;;;;;;4860823;29;19924;-76
2022/04/17 04:07:38;;;;;;;;;;;21.80;99.90;;;;;;4860790;29;19959;-76
2022/04/17 04:10:05;;;;;;;;;;;21.90;99.90;;;;;;4860816;29;19919;-76
2022/04/17 04:12:32;;;;;;;;;;;21.90;99.90;;;;;;4861015;29;19935;-76
2022/04/17 04:14:58;;;;;;;;;;;21.80;99.90;;;;;;4860985;29;19912;-76
2022/04/17 04:17:25;;;;;;;;;;;21.80;99.90;;;;;;4860881;29;19912;-76
2022/04/17 04:19:52;;;;;;;;;;;21.70;99.90;;;;;;4860773;29;20375;-75
2022/04/17 04:22:20;;;;;;;;;;;21.60;99.90;;;;;;4860720;29;19918;-77
2022/04/17 04:24:46;;;;;;;;;;;21.50;99.90;;;;;;4860841;29;19968;-76
2022/04/17 04:29:58;;;;;;;;;;;21.60;99.90;;;;;;4860886;29;20007;-75
2022/04/17 04:32:24;;;;;;;;;;;21.70;99.90;;;;;;4860668;29;19913;-76
2022/04/17 04:34:51;;;;;;;;;;;21.60;99.90;;;;;;4860765;29;19980;-77
2022/04/17 04:37:18;;;;;;;;;;;21.50;99.90;;;;;;4860727;29;19916;-76
2022/04/17 04:39:45;;;;;;;;;;;21.50;99.90;;;;;;4860658;29;19912;-77
2022/04/17 04:42:12;;;;;;;;;;;21.50;99.90;;;;;;4860694;29;19969;-76
2022/04/17 04:44:38;;;;;;;;;;;21.50;99.90;;;;;;4860656;29;20018;-76
2022/04/17 04:47:05;;;;;;;;;;;21.50;99.90;;;;;;4860359;29;19963;-77
2022/04/17 04:49:32;;;;;;;;;;;21.50;99.90;;;;;;4860443;29;19952;-75
2022/04/17 04:51:58;;;;;;;;;;;21.50;99.90;;;;;;4860557;29;19920;-76
2022/04/17 04:54:25;;;;;;;;;;;21.50;99.90;;;;;;4860225;29;19912;-76
2022/04/17 04:56:52;;;;;;;;;;;21.50;99.90;;;;;;4860456;29;19912;-76
2022/04/17 04:59:20;;;;;;;;;;;21.40;99.90;;;;;;4862372;29;19947;-76
2022/04/17 05:01:48;;;;;;;;;;;21.40;99.90;;;;;;4863434;29;20424;-77
2022/04/17 05:04:16;;;;;;;;;;;21.40;99.90;;;;;;4863272;29;20031;-76
2022/04/17 05:06:43;;;;;;;;;;;21.30;99.90;;;;;;4863645;29;20288;-75
2022/04/17 05:09:10;;;;;;;;;;;21.30;99.90;;;;;;4863823;29;19919;-76
2022/04/17 05:11:37;;;;;;;;;;;21.40;99.90;;;;;;4863450;29;20295;-76
2022/04/17 05:14:08;;;;;;;;;;;21.40;99.90;;;;;;4863746;29;19912;-76
2022/04/17 05:16:35;;;;;;;;;;;21.30;99.90;;;;;;4863641;29;19912;-76
2022/04/17 05:21:47;;;;;;;;;;;21.30;99.90;;;;;;4863694;29;20391;-75
2022/04/17 05:24:16;;;;;;;;;;;21.30;99.90;;;;;;4863328;29;19927;-75
2022/04/17 05:26:43;;;;;;;;;;;21.30;99.90;;;;;;4863520;29;19919;-76
2022/04/17 05:29:10;;;;;;;;;;;21.40;99.90;;;;;;4863493;29;19912;-75
2022/04/17 05:31:37;;;;;;;;;;;21.40;99.90;;;;;;4863197;29;19931;-75
2022/04/17 05:34:03;;;;;;;;;;;21.40;99.90;;;;;;4863321;29;20258;-76
2022/04/17 05:36:30;;;;;;;;;;;21.30;99.90;;;;;;4863337;29;19972;-75
2022/04/17 05:38:57;;;;;;;;;;;21.40;99.90;;;;;;4863334;29;20428;-75
2022/04/17 05:41:24;;;;;;;;;;;21.30;99.90;;;;;;4863177;29;20006;-75
2022/04/17 05:43:51;;;;;;;;;;;21.30;99.90;;;;;;4862826;29;19920;-74
2022/04/17 05:46:18;;;;;;;;;;;21.20;99.90;;;;;;4862931;29;19916;-74
2022/04/17 05:48:45;;;;;;;;;;;21.10;99.90;;;;;;4863078;29;20289;-74
2022/04/17 05:51:12;;;;;;;;;;;21.10;99.90;;;;;;4863040;29;19968;-75
2022/04/17 05:53:39;;;;;;;;;;;21.20;99.90;;;;;;4862778;29;20352;-74
2022/04/17 05:56:06;;;;;;;;;;;21.10;99.90;;;;;;4861910;29;19964;-74
2022/04/17 05:58:33;;;;;;;;;;;21.10;99.90;;;;;;4863171;29;20372;-75
2022/04/17 06:01:02;;;;;;;;;;;21.10;99.90;;;;;;4862840;29;19912;-74
2022/04/17 06:03:29;;;;;;;;;;;21.10;99.90;;;;;;4862998;29;19983;-75
2022/04/17 06:05:55;;;;;;;;;;;21.00;99.90;;;;;;4862623;29;19979;-75
2022/04/17 06:08:23;;;;;;;;;;;21.00;99.90;;;;;;4862655;29;19923;-76
2022/04/17 06:10:50;;;;;;;;;;;21.00;99.90;;;;;;4862467;29;20291;-76
2022/04/17 06:13:17;;;;;;;;;;;21.00;99.90;;;;;;4862588;29;19923;-75
2022/04/17 06:15:44;;;;;;;;;;;21.00;99.90;;;;;;4862231;29;19995;-76
2022/04/17 06:18:10;;;;;;;;;;;20.90;99.90;;;;;;4862369;29;19919;-75
2022/04/17 06:20:37;;;;;;;;;;;20.90;99.90;;;;;;4862483;29;19912;-75
2022/04/17 06:23:04;;;;;;;;;;;20.80;99.90;;;;;;4862351;29;19965;-75
2022/04/17 06:25:31;;;;;;;;;;;20.80;99.90;;;;;;4862101;29;19923;-76
2022/04/17 06:27:59;;;;;;;;;;;20.80;99.90;;;;;;4861856;29;19912;-76
2022/04/17 06:30:26;;;;;;;;;;;20.80;99.90;;;;;;4861995;29;20411;-75
2022/04/17 06:32:53;;;;;;;;;;;20.80;99.90;;;;;;4862253;29;19912;-76
2022/04/17 06:35:19;;;;;;;;;;;20.80;99.90;;;;;;4862387;29;19918;-76
2022/04/17 06:37:47;;;;;;;;;;;20.70;99.90;;;;;;4862207;29;20357;-76
2022/04/17 06:40:17;;;;;;;;;;;20.70;99.90;;;;;;4862348;29;19916;-76
2022/04/17 06:42:45;;;;;;;;;;;20.70;99.90;;;;;;4861970;29;19916;-75
2022/04/17 06:45:11;;;;;;;;;;;20.60;99.90;;;;;;4862183;29;20002;-75
2022/04/17 06:47:38;;;;;;;;;;;20.60;99.90;;;;;;4861656;29;19912;-76
2022/04/17 06:50:06;;;;;;;;;;;20.60;99.90;;;;;;4861773;29;19912;-75
2022/04/17 06:52:33;;;;;;;;;;;20.60;99.90;;;;;;4862120;29;19920;-75
2022/04/17 06:54:59;;;;;;;;;;;20.50;99.90;;;;;;4861775;29;19916;-75
2022/04/17 06:57:33;;;;;;;;;;;20.50;99.90;;;;;;4861156;29;20336;-75
2022/04/17 07:00:07;;;;;;;;;;;20.50;99.90;;;;;;4876717;29;19912;-75
2022/04/17 07:02:34;;;;;;;;;;;20.40;99.90;;;;;;4880269;29;19959;-75
2022/04/17 07:05:00;;;;;;;;;;;20.40;99.90;;;;;;4880130;29;19923;-75
2022/04/17 07:07:27;;;;;;;;;;;20.40;99.90;;;;;;4880151;29;19912;-75
2022/04/17 07:09:54;;;;;;;;;;;20.40;99.90;;;;;;4880079;29;19935;-76
2022/04/17 07:12:21;;;;;;;;;;;20.30;99.90;;;;;;4879708;29;19912;-76
2022/04/17 07:14:49;;;;;;;;;;;20.30;99.90;;;;;;4880037;29;20002;-74
2022/04/17 07:17:15;;;;;;;;;;;20.30;99.90;;;;;;4880044;29;20265;-75
2022/04/17 07:19:42;;;;;;;;;;;20.20;99.90;;;;;;4879768;29;19960;-75
2022/04/17 07:22:10;;;;;;;;;;;20.20;99.90;;;;;;4879501;29;19912;-75
2022/04/17 07:24:39;;;;;;;;;;;20.20;99.90;;;;;;4879621;29;19926;-75
2022/04/17 07:27:06;;;;;;;;;;;20.20;99.90;;;;;;4879118;29;19950;-75
2022/04/17 07:29:32;;;;;;;;;;;20.10;99.90;;;;;;4879448;29;19912;-76
2022/04/17 07:31:59;;;;;;;;;;;20.10;99.90;;;;;;4879900;29;20291;-76
2022/04/17 07:34:26;;;;;;;;;;;20.10;99.90;;;;;;4879551;29;19968;-75
2022/04/17 07:36:54;;;;;;;;;;;20.00;99.90;;;;;;4879796;29;19999;-74
2022/04/17 07:39:22;;;;;;;;;;;20.00;99.90;;;;;;4879700;29;19947;-74
2022/04/17 07:41:49;;;;;;;;;;;20.00;99.90;;;;;;4878864;29;19911;-74
2022/04/17 07:44:15;;;;;;;;;;;20.00;99.90;;;;;;4878994;29;19988;-74
2022/04/17 07:46:42;;;;;;;;;;;19.90;99.90;;;;;;4879792;29;19984;-77
2022/04/17 07:49:09;;;;;;;;;;;20.00;99.90;;;;;;4879856;29;19959;-75
2022/04/17 07:51:36;;;;;;;;;;;19.90;99.90;;;;;;4879413;29;20006;-76
2022/04/17 07:54:03;;;;;;;;;;;19.90;99.90;;;;;;4879594;29;19912;-76
2022/04/17 07:56:30;;;;;;;;;;;19.90;99.90;;;;;;4879147;29;19912;-76
2022/04/17 07:58:57;;;;;;;;;;;19.90;99.90;;;;;;4879441;29;19919;-77
2022/04/17 08:01:24;;;;;;;;;;;19.90;99.90;;;;;;4879455;29;19915;-76
2022/04/17 08:03:50;;;;;;;;;;;19.80;99.90;;;;;;4879263;29;19928;-75
2022/04/17 08:06:20;;;;;;;;;;;19.80;99.90;;;;;;4879888;29;20244;-77
2022/04/17 08:08:49;;;;;;;;;;;19.80;99.90;;;;;;4879041;29;19916;-77
2022/04/17 08:11:16;;;;;;;;;;;19.70;99.90;;;;;;4879007;29;19920;-77
2022/04/17 08:13:45;;;;;;;;;;;19.70;99.90;;;;;;4879196;29;19912;-77
2022/04/17 08:16:12;;;;;;;;;;;19.70;99.90;;;;;;4879314;29;20019;-76
2022/04/17 08:18:38;;;;;;;;;;;19.70;99.90;;;;;;4879394;29;20078;-76
2022/04/17 08:21:05;;;;;;;;;;;19.70;99.90;;;;;;4879481;29;19919;-76
2022/04/17 08:23:32;;;;;;;;;;;19.70;99.90;;;;;;4879036;29;20264;-77
2022/04/17 08:25:59;;;;;;;;;;;19.60;99.90;;;;;;4879368;29;20007;-76
2022/04/17 08:28:25;;;;;;;;;;;19.60;99.90;;;;;;4879372;29;19919;-76
2022/04/17 08:30:52;;;;;;;;;;;19.60;99.90;;;;;;4879178;29;19911;-77
2022/04/17 08:33:19;;;;;;;;;;;19.60;99.90;;;;;;4881348;29;20319;-77
2022/04/17 08:35:46;;;;;;;;;;;19.60;99.90;;;;;;4882601;29;19912;-76
2022/04/17 08:38:14;;;;;;;;;;;19.60;99.90;;;;;;4882775;29;19912;-76
2022/04/17 08:40:41;;;;;;;;;;;19.60;99.90;;;;;;4882567;29;19911;-75
2022/04/17 08:43:08;;;;;;;;;;;19.60;99.90;;;;;;4864898;29;20455;-77
2022/04/17 08:45:35;;;;;;;;;;;19.50;99.90;;;;;;4881748;29;19946;-76
2022/04/17 08:48:02;;;;;;;;;;;19.50;99.90;;;;;;4882768;29;20463;-76
2022/04/17 08:50:29;;;;;;;;;;;19.50;99.90;;;;;;4882935;29;20328;-77
2022/04/17 08:52:57;;;;;;;;;;;19.50;99.90;;;;;;4882745;29;19920;-76
2022/04/17 08:55:24;;;;;;;;;;;19.40;99.90;;;;;;4882715;29;19968;-76
2022/04/17 08:57:51;;;;;;;;;;;19.40;99.90;;;;;;4881635;29;19912;-76
2022/04/17 09:00:17;;;;;;;;;;;19.40;99.90;;;;;;4882520;29;20435;-74
2022/04/17 09:02:44;;;;;;;;;;;19.40;99.90;;;;;;4878396;29;19924;-76
2022/04/17 09:05:12;;;;;;;;;;;19.40;99.90;;;;;;4862267;29;20030;-77
2022/04/17 09:07:44;;;;;;;;;;;19.40;99.90;;;;;;4863325;29;20348;-77
2022/04/17 09:10:11;;;;;;;;;;;19.40;99.90;;;;;;4863829;29;19913;-75
2022/04/17 09:12:37;;;;;;;;;;;19.40;99.90;;;;;;4863717;29;19919;-74
2022/04/17 09:15:04;;;;;;;;;;;19.30;99.90;;;;;;4863679;29;20333;-76
2022/04/17 09:17:32;;;;;;;;;;;19.30;99.90;;;;;;4863670;29;20383;-76
2022/04/17 09:19:59;;;;;;;;;;;19.30;99.90;;;;;;4862279;29;19916;-76
2022/04/17 09:22:29;;;;;;;;;;;19.30;99.90;;;;;;4845977;29;19972;-76
2022/04/17 09:25:11;;;;;;;;;;;19.30;99.90;;;;;;4874332;29;19928;-75
2022/04/17 09:27:41;;;;;;;;;;;19.30;99.90;;;;;;4869213;29;20011;-75
2022/04/17 09:30:26;;;;;;;;;;;19.30;99.90;;;;;;4877719;29;19987;-74
2022/04/17 09:32:53;;;;;;;;;;;19.30;99.90;;;;;;4877837;29;20411;-75
2022/04/17 09:35:23;;;;;;;;;;;19.30;99.90;;;;;;4878304;29;19919;-76
2022/04/17 09:37:54;;;;;;;;;;;19.20;99.90;;;;;;4878545;29;20011;-76
2022/04/17 09:40:21;;;;;;;;;;;19.20;99.90;;;;;;4879293;29;19922;-75
2022/04/17 09:42:50;;;;;;;;;;;19.20;99.90;;;;;;4862122;29;20465;-74
2022/04/17 09:45:17;;;;;;;;;;;19.20;99.90;;;;;;4878141;29;19923;-75
2022/04/17 09:47:55;;;;;;;;;;;19.20;99.90;;;;;;4878673;29;20040;-76
2022/04/17 09:50:30;;;;;;;;;;;19.20;99.90;;;;;;4878958;29;19941;-75
2022/04/17 09:52:58;;;;;;;;;;;19.10;99.90;;;;;;4878863;29;19923;-76
2022/04/17 09:55:28;;;;;;;;;;;19.10;99.90;;;;;;4878752;29;20379;-75
2022/04/17 09:57:58;;;;;;;;;;;19.10;99.90;;;;;;4878585;29;19964;-76
2022/04/17 10:00:25;;;;;;;;;;;19.10;99.90;;;;;;4878836;29;19922;-75
2022/04/17 10:02:52;;;;;;;;;;;19.10;99.90;;;;;;4878347;29;19927;-76
2022/04/17 10:05:20;;;;;;;;;;;19.10;99.90;;;;;;4878296;29;19923;-75
2022/04/17 10:07:50;;;;;;;;;;;19.10;99.90;;;;;;4878066;29;20010;-75
2022/04/17 10:10:17;;;;;;;;;;;19.10;99.90;;;;;;4878302;29;20015;-76
2022/04/17 10:12:47;;;;;;;;;;;19.10;99.90;;;;;;4878490;29;19911;-76
2022/04/17 10:15:14;;;;;;;;;;;19.10;99.90;;;;;;4878302;29;19923;-74
2022/04/17 10:17:44;;;;;;;;;;;19.10;99.90;;;;;;4877668;29;19916;-76
2022/04/17 10:20:12;;;;;;;;;;;19.10;99.90;;;;;;4861326;29;19916;-74
2022/04/17 10:22:40;;;;;;;;;;;19.10;99.90;;;;;;4878160;29;19912;-75
2022/04/17 10:25:08;;;;;;;;;;;19.20;99.90;;;;;;4878197;29;19912;-74
2022/04/17 10:27:37;;;;;;;;;;;19.20;99.90;;;;;;4878139;29;19916;-74
2022/04/17 10:30:06;;;;;;;;;;;19.10;99.90;;;;;;4877974;29;19919;-74
2022/04/17 10:32:36;;;;;;;;;;;19.10;99.90;;;;;;4878356;29;20363;-74
2022/04/17 10:35:21;;;;;;;;;;;19.10;99.90;;;;;;4878231;29;19968;-74
2022/04/17 10:37:54;;;;;;;;;;;19.10;99.90;;;;;;4877841;29;19919;-74
2022/04/17 10:40:21;;;;;;;;;;;19.10;99.90;;;;;;4878075;29;20002;-75
2022/04/17 10:42:55;;;;;;;;;;;19.10;99.90;;;;;;4877944;29;19924;-74
2022/04/17 10:45:22;;;;;;;;;;;19.10;99.90;;;;;;4877715;29;19955;-75
2022/04/17 10:48:02;;;;;;;;;;;19.10;99.90;;;;;;4877865;29;20002;-75
2022/04/17 10:50:52;;;;;;;;;;;19.10;99.90;;;;;;4877773;29;19912;-75
2022/04/17 10:53:25;;;;;;;;;;;19.10;99.90;;;;;;4867939;29;20002;-75
2022/04/17 10:56:08;;;;;;;;;;;19.10;99.90;;;;;;4876520;29;20038;-75
2022/04/17 10:58:44;;;;;;;;;;;19.10;99.90;;;;;;4877542;29;19912;-75
2022/04/17 11:01:14;;;;;;;;;;;19.10;99.90;;;;;;4877554;29;20427;-74
2022/04/17 11:03:49;;;;;;;;;;;19.10;99.90;;;;;;4877127;29;20597;-75
2022/04/17 11:06:30;;;;;;;;;;;19.10;99.90;;;;;;4877485;29;19957;-77
2022/04/17 11:09:15;;;;;;;;;;;19.10;99.90;;;;;;4877160;29;19923;-75
2022/04/17 11:11:45;;;;;;;;;;;19.10;99.90;;;;;;4877204;29;19960;-76
2022/04/17 11:14:23;;;;;;;;;;;19.00;99.90;;;;;;4877473;29;19912;-75
2022/04/17 11:16:50;;;;;;;;;;;19.00;99.90;;;;;;4877379;29;20008;-75
2022/04/17 11:19:23;;;;;;;;;;;19.00;99.90;;;;;;4877388;29;19920;-76
2022/04/17 11:21:51;;;;;;;;;;;19.00;99.90;;;;;;4860299;29;19916;-74
2022/04/17 11:24:19;;;;;;;;;;;19.00;99.90;;;;;;4876937;29;20361;-75
2022/04/17 11:26:55;;;;;;;;;;;19.00;99.90;;;;;;4877052;29;19919;-75
2022/04/17 11:29:43;;;;;;;;;;;19.00;99.90;;;;;;4877035;29;20453;-77
2022/04/17 11:32:18;;;;;;;;;;;19.00;99.90;;;;;;4877263;29;19919;-76
2022/04/17 11:34:55;;;;;;;;;;;19.00;99.90;;;;;;4877233;29;19918;-77
2022/04/17 11:37:28;;;;;;;;;;;19.00;99.90;;;;;;4876744;29;19921;-77
2022/04/17 11:39:56;;;;;;;;;;;19.00;99.90;;;;;;4877139;29;19912;-77
2022/04/17 11:42:22;;;;;;;;;;;19.00;99.90;;;;;;4877123;29;19919;-76
2022/04/17 11:44:49;;;;;;;;;;;19.00;99.90;;;;;;4876743;29;19984;-77
2022/04/17 11:47:17;;;;;;;;;;;19.00;99.90;;;;;;4877001;29;19915;-77
2022/04/17 11:49:44;;;;;;;;;;;19.00;99.90;;;;;;4876331;29;19912;-77
2022/04/17 11:52:12;;;;;;;;;;;18.90;99.90;;;;;;4877049;29;19919;-77
2022/04/17 11:54:38;;;;;;;;;;;19.00;99.90;;;;;;4876943;29;20390;-76
2022/04/17 11:57:06;;;;;;;;;;;18.90;99.90;;;;;;4876722;29;19912;-76
2022/04/17 11:59:52;;;;;;;;;;;18.90;99.90;;;;;;4876394;29;19959;-76
2022/04/17 12:02:20;;;;;;;;;;;18.90;99.90;;;;;;4876335;29;19912;-76
2022/04/17 12:04:51;;;;;;;;;;;18.90;99.90;;;;;;4877005;29;19991;-77
2022/04/17 12:07:24;;;;;;;;;;;18.90;99.90;;;;;;4878133;29;19954;-77
2022/04/17 12:10:02;;;;;;;;;;;18.90;99.90;;;;;;4882825;29;20295;-77
2022/04/17 12:12:33;;;;;;;;;;;18.90;99.90;;;;;;4883061;29;19918;-77
2022/04/17 12:15:03;;;;;;;;;;;18.90;99.90;;;;;;4865660;29;19912;-76
2022/04/17 12:17:33;;;;;;;;;;;18.90;99.90;;;;;;4882945;29;19911;-77
2022/04/17 12:20:01;;;;;;;;;;;18.80;99.90;;;;;;4882793;29;19919;-77
2022/04/17 12:22:28;;;;;;;;;;;18.80;99.90;;;;;;4882609;29;19919;-77
2022/04/17 12:24:54;;;;;;;;;;;18.80;99.90;;;;;;4882897;29;19916;-76
2022/04/17 12:27:21;;;;;;;;;;;18.80;99.90;;;;;;4882544;29;20002;-76
2022/04/17 12:29:52;;;;;;;;;;;18.80;99.90;;;;;;4882254;29;19923;-76
2022/04/17 12:32:23;;;;;;;;;;;18.80;99.90;;;;;;4882795;29;19915;-77
2022/04/17 12:34:59;;;;;;;;;;;18.70;99.90;;;;;;4882799;29;19962;-76
2022/04/17 12:37:28;;;;;;;;;;;18.70;99.90;;;;;;4882704;29;19916;-77
2022/04/17 12:40:07;;;;;;;;;;;18.70;99.90;;;;;;4882402;29;19912;-76
2022/04/17 12:42:34;;;;;;;;;;;18.70;99.90;;;;;;4882187;29;19911;-76
2022/04/17 12:45:01;;;;;;;;;;;18.70;99.90;;;;;;4882600;29;19920;-76
2022/04/17 12:47:27;;;;;;;;;;;18.70;99.90;;;;;;4882843;29;19918;-77
2022/04/17 12:50:01;;;;;;;;;;;18.70;99.90;;;;;;4882430;29;19947;-76
2022/04/17 12:52:28;;;;;;;;;;;18.60;99.90;;;;;;4882780;29;19919;-76
2022/04/17 12:54:56;;;;;;;;;;;18.60;99.90;;;;;;4882339;29;19911;-76
2022/04/17 12:57:23;;;;;;;;;;;18.70;99.90;;;;;;4882439;29;19915;-76
2022/04/17 12:59:50;;;;;;;;;;;18.70;99.90;;;;;;4882261;29;20425;-76
2022/04/17 13:02:24;;;;;;;;;;;18.60;99.90;;;;;;4882280;29;20340;-74
2022/04/17 13:04:55;;;;;;;;;;;18.60;99.90;;;;;;4882244;29;19930;-76
2022/04/17 13:07:21;;;;;;;;;;;18.60;99.90;;;;;;4881971;29;20002;-75
2022/04/17 13:10:03;;;;;;;;;;;18.60;99.90;;;;;;4882326;29;19912;-75
2022/04/17 13:12:31;;;;;;;;;;;18.60;99.90;;;;;;4882513;29;20291;-77
2022/04/17 13:14:58;;;;;;;;;;;18.60;99.90;;;;;;4882462;29;19912;-74
2022/04/17 13:17:25;;;;;;;;;;;18.60;99.90;;;;;;4882302;29;20389;-74
2022/04/17 13:19:51;;;;;;;;;;;18.60;99.90;;;;;;4878794;29;20455;-75
2022/04/17 13:22:18;;;;;;;;;;;18.60;99.90;;;;;;4879257;29;20036;-75
2022/04/17 13:24:45;;;;;;;;;;;18.60;99.90;;;;;;4879281;29;19928;-74
2022/04/17 13:27:12;;;;;;;;;;;18.60;99.90;;;;;;4879184;29;20389;-76
2022/04/17 13:29:44;;;;;;;;;;;18.60;99.90;;;;;;4879136;29;20327;-76
2022/04/17 13:32:11;;;;;;;;;;;18.60;99.90;;;;;;4879354;29;19912;-76
2022/04/17 13:34:38;;;;;;;;;;;18.60;99.90;;;;;;4879065;29;20565;-77
2022/04/17 13:39:49;;;;;;;;;;;18.60;99.90;;;;;;4879266;29;19919;-74
2022/04/17 13:42:16;;;;;;;;;;;18.60;99.90;;;;;;4878802;29;19918;-76
2022/04/17 13:44:43;;;;;;;;;;;18.60;99.90;;;;;;4878932;29;19928;-74
2022/04/17 13:47:10;;;;;;;;;;;18.50;99.90;;;;;;4878769;29;19920;-74
2022/04/17 13:49:36;;;;;;;;;;;18.50;99.90;;;;;;4878700;29;19927;-73
2022/04/17 13:52:03;;;;;;;;;;;18.50;99.90;;;;;;4878768;29;19916;-77
2022/04/17 13:54:30;;;;;;;;;;;18.50;99.90;;;;;;4878860;29;19915;-77
2022/04/17 13:56:58;;;;;;;;;;;18.50;99.90;;;;;;4878720;29;19916;-76
2022/04/17 13:59:25;;;;;;;;;;;18.60;99.90;;;;;;4877543;29;19923;-76
2022/04/17 14:01:51;;;;;;;;;;;18.60;99.90;;;;;;4879016;29;20283;-77
2022/04/17 14:04:18;;;;;;;;;;;18.50;99.90;;;;;;4879108;29;20435;-77
2022/04/17 14:06:45;;;;;;;;;;;18.50;99.90;;;;;;4879187;29;19918;-76
2022/04/17 14:09:15;;;;;;;;;;;18.50;99.90;;;;;;4879271;29;20299;-76
2022/04/17 14:11:43;;;;;;;;;;;18.40;99.90;;;;;;4878968;29;19950;-77
2022/04/17 14:14:10;;;;;;;;;;;18.40;99.90;;;;;;4878959;29;19919;-78
2022/04/17 14:16:37;;;;;;;;;;;18.40;99.90;;;;;;4879305;29;19927;-77
2022/04/17 14:19:03;;;;;;;;;;;18.20;99.90;;;;;;4879146;29;19915;-77
2022/04/17 14:21:30;;;;;;;;;;;18.20;99.90;;;;;;4879079;29;19912;-76
2022/04/17 14:23:57;;;;;;;;;;;18.10;99.90;;;;;;4878893;29;19923;-77
2022/04/17 14:26:23;;;;;;;;;;;18.00;99.90;;;;;;4878816;29;19974;-77
2022/04/17 14:28:50;;;;;;;;;;;18.00;99.90;;;;;;4878833;29;20434;-78
2022/04/17 14:31:16;;;;;;;;;;;17.90;99.90;;;;;;4878695;29;20003;-77
2022/04/17 14:33:43;;;;;;;;;;;17.90;99.90;;;;;;4878636;29;19959;-77
2022/04/17 14:36:10;;;;;;;;;;;17.90;99.90;;;;;;4878911;29;19916;-77
2022/04/17 14:38:37;;;;;;;;;;;17.90;99.90;;;;;;4878469;29;20299;-77